Time;durP1;ratioP1;P1;durP2;ratioP2;P2;SDS_P1;SDS_P2;PMS_P1;PMS_P2;Temp;Humidity;BMP_temperature;BMP_pressure;BME280_temperature;BME280_humidity;BME280_pressure;Samples;Min_cycle;Max_cycle;Signal;HPM_P1;HPM_P2
2023/05/10 00:00:09;;;;;;;0.65;0.50;;;15.90;99.90;;;;;;5031632;28;20021;-39
2023/05/10 00:02:34;;;;;;;1.40;0.70;;;15.90;99.90;;;;;;5034345;28;20394;-39
2023/05/10 00:05:00;;;;;;;0.90;0.40;;;15.90;99.90;;;;;;5034273;28;20030;-40
2023/05/10 00:07:26;;;;;;;1.08;0.30;;;15.90;99.90;;;;;;5033735;28;20029;-38
2023/05/10 00:09:52;;;;;;;0.98;0.50;;;15.90;99.90;;;;;;5034251;28;20033;-39
2023/05/10 00:12:17;;;;;;;0.50;0.45;;;15.90;99.90;;;;;;5033970;28;20033;-39
2023/05/10 00:14:43;;;;;;;2.55;0.30;;;15.90;99.90;;;;;;5034448;28;20030;-39
2023/05/10 00:17:09;;;;;;;0.52;0.30;;;15.80;99.90;;;;;;5033508;28;20103;-39
2023/05/10 00:19:34;;;;;;;0.20;0.20;;;15.90;99.90;;;;;;5034156;28;20067;-39
2023/05/10 00:22:00;;;;;;;0.45;0.30;;;15.90;99.90;;;;;;5034042;28;20356;-39
2023/05/10 00:24:25;;;;;;;1.05;0.40;;;15.80;99.90;;;;;;5033959;28;20029;-39
2023/05/10 00:26:51;;;;;;;0.63;0.32;;;15.80;99.90;;;;;;5033199;28;20043;-39
2023/05/10 00:29:17;;;;;;;1.35;0.52;;;15.80;99.90;;;;;;5033815;28;20104;-39
2023/05/10 00:31:42;;;;;;;1.80;0.30;;;15.80;99.90;;;;;;5033762;28;20052;-41
2023/05/10 00:34:08;;;;;;;0.68;0.30;;;15.80;99.90;;;;;;5033771;28;20026;-39
2023/05/10 00:36:34;;;;;;;0.20;0.20;;;15.90;99.90;;;;;;5033085;28;20021;-39
2023/05/10 00:39:00;;;;;;;1.00;0.40;;;15.80;99.90;;;;;;5033668;28;20069;-41
2023/05/10 00:41:25;;;;;;;0.40;0.30;;;15.80;99.90;;;;;;5033614;28;20483;-39
2023/05/10 00:43:51;;;;;;;0.30;0.30;;;15.80;99.90;;;;;;5033581;28;20036;-39
2023/05/10 00:46:17;;;;;;;0.22;0.20;;;15.80;99.90;;;;;;5033054;28;20033;-39
2023/05/10 00:48:44;;;;;;;1.35;0.25;;;15.80;99.90;;;;;;5033528;28;20025;-39
2023/05/10 00:51:10;;;;;;;0.63;0.40;;;15.80;99.90;;;;;;5033459;28;20037;-39
2023/05/10 00:53:35;;;;;;;1.83;0.25;;;15.80;99.90;;;;;;5033410;28;20036;-39
2023/05/10 00:56:03;;;;;;;1.17;0.20;;;15.80;99.90;;;;;;5032730;28;20440;-40
2023/05/10 00:58:30;;;;;;;0.45;0.20;;;15.80;99.90;;;;;;5033342;28;20025;-40
2023/05/10 01:00:56;;;;;;;0.73;0.22;;;15.80;99.90;;;;;;5033349;28;20493;-40
2023/05/10 01:03:22;;;;;;;0.20;0.10;;;15.80;99.90;;;;;;5033327;28;20030;-38
2023/05/10 01:05:48;;;;;;;0.28;0.17;;;15.80;99.90;;;;;;5032833;28;20028;-39
2023/05/10 01:08:14;;;;;;;0.77;0.30;;;15.80;99.90;;;;;;5032993;28;20092;-39
2023/05/10 01:10:40;;;;;;;4.65;0.30;;;15.80;99.90;;;;;;5032923;28;20509;-39
2023/05/10 01:13:06;;;;;;;0.47;0.15;;;15.80;99.90;;;;;;5033339;28;20033;-39
2023/05/10 01:15:31;;;;;;;3.83;0.20;;;15.80;99.90;;;;;;5033117;28;20120;-39
2023/05/10 01:17:57;;;;;;;0.95;0.30;;;15.70;99.90;;;;;;5032573;28;20084;-39
2023/05/10 01:20:24;;;;;;;0.20;0.10;;;15.80;99.90;;;;;;5032978;28;20068;-39
2023/05/10 01:23:28;;;;;;;1.20;0.30;;;15.80;99.90;;;;;;5032907;28;20112;-39
2023/05/10 01:26:16;;;;;;;1.50;0.30;;;15.70;99.90;;;;;;5032526;28;20036;-39
2023/05/10 01:29:13;;;;;;;0.28;0.10;;;15.80;99.90;;;;;;5032706;28;20040;-40
2023/05/10 01:31:51;;;;;;;2.20;0.25;;;15.70;99.90;;;;;;5032686;28;20017;-40
2023/05/10 01:34:23;;;;;;;0.20;0.20;;;15.80;99.90;;;;;;5032683;28;20029;-39
2023/05/10 01:36:58;;;;;;;3.53;0.20;;;15.70;99.90;;;;;;5032504;28;20060;-40
2023/05/10 01:39:48;;;;;;;1.98;0.17;;;15.70;99.90;;;;;;5032606;28;20017;-39
2023/05/10 01:42:19;;;;;;;0.70;0.22;;;15.70;99.90;;;;;;5032550;28;20029;-38
2023/05/10 01:45:11;;;;;;;1.00;0.35;;;15.70;99.90;;;;;;5032471;28;20026;-39
2023/05/10 01:47:46;;;;;;;0.10;0.10;;;15.70;99.90;;;;;;5024795;28;20060;-40
2023/05/10 01:50:28;;;;;;;1.38;0.25;;;15.70;99.90;;;;;;5032241;28;20521;-39
2023/05/10 01:52:57;;;;;;;1.45;0.30;;;15.70;99.90;;;;;;5032292;28;20053;-39
2023/05/10 01:55:27;;;;;;;0.30;0.10;;;15.70;99.90;;;;;;5032245;28;20029;-38
2023/05/10 01:58:05;;;;;;;0.30;0.15;;;15.70;99.90;;;;;;5031611;28;20079;-40
2023/05/10 02:00:33;;;;;;;0.35;0.20;;;15.70;99.90;;;;;;5032140;28;20048;-39
2023/05/10 02:03:01;;;;;;;0.65;0.20;;;15.70;99.90;;;;;;5032103;28;20033;-40
2023/05/10 02:05:29;;;;;;;0.20;0.15;;;15.70;99.90;;;;;;5032016;28;20021;-39
2023/05/10 02:07:56;;;;;;;0.43;0.10;;;15.70;99.90;;;;;;5031494;28;20493;-39
2023/05/10 02:10:22;;;;;;;0.20;0.17;;;15.70;99.90;;;;;;5032022;28;20112;-39
2023/05/10 02:12:49;;;;;;;0.40;0.20;;;15.70;99.90;;;;;;5031875;28;20191;-39
2023/05/10 02:15:20;;;;;;;0.20;0.13;;;15.70;99.90;;;;;;5031790;28;20357;-39
2023/05/10 02:17:47;;;;;;;1.05;0.30;;;15.70;99.90;;;;;;5031269;28;20104;-39
2023/05/10 02:20:14;;;;;;;0.32;0.20;;;15.60;99.90;;;;;;5031809;28;20029;-39
2023/05/10 02:22:41;;;;;;;0.70;0.28;;;15.60;99.90;;;;;;5031327;28;20029;-39
2023/05/10 02:25:09;;;;;;;0.63;0.10;;;15.60;99.90;;;;;;5032118;28;20029;-39
2023/05/10 02:27:37;;;;;;;0.45;0.17;;;15.60;99.90;;;;;;5030985;28;20034;-39
2023/05/10 02:30:05;;;;;;;1.23;0.20;;;15.60;99.90;;;;;;5031640;28;20030;-39
2023/05/10 02:32:32;;;;;;;0.73;0.20;;;15.60;99.90;;;;;;5031638;28;20034;-39
2023/05/10 02:34:59;;;;;;;0.10;0.10;;;15.60;99.90;;;;;;5031541;28;20037;-39
2023/05/10 02:37:26;;;;;;;2.85;0.17;;;15.60;99.90;;;;;;5030816;28;20035;-39
2023/05/10 02:39:54;;;;;;;2.00;0.15;;;15.60;99.90;;;;;;5031439;28;20022;-39
2023/05/10 02:42:26;;;;;;;0.45;0.20;;;15.60;99.90;;;;;;5031375;28;20115;-39
2023/05/10 02:44:56;;;;;;;0.90;0.20;;;15.60;99.90;;;;;;5030121;28;20512;-39
2023/05/10 02:47:22;;;;;;;3.30;0.30;;;15.60;99.90;;;;;;5030736;28;20036;-39
2023/05/10 02:49:47;;;;;;;1.70;0.20;;;15.50;99.90;;;;;;5031299;28;20025;-39
2023/05/10 02:52:19;;;;;;;3.00;0.30;;;15.60;99.90;;;;;;5031226;28;20048;-39
2023/05/10 02:54:49;;;;;;;1.60;0.30;;;15.50;99.90;;;;;;5031186;28;20449;-38
2023/05/10 02:57:22;;;;;;;0.60;0.25;;;15.60;99.90;;;;;;5030871;28;20463;-39
2023/05/10 02:59:47;;;;;;;0.80;0.28;;;15.60;99.90;;;;;;5031424;28;20017;-39
2023/05/10 03:02:13;;;;;;;0.38;0.28;;;15.60;99.90;;;;;;5031209;28;20025;-39
2023/05/10 03:04:39;;;;;;;4.65;0.43;;;15.60;99.90;;;;;;5031153;28;20439;-40
2023/05/10 03:07:05;;;;;;;0.32;0.22;;;15.50;99.90;;;;;;5030932;28;20108;-39
2023/05/10 03:09:32;;;;;;;0.65;0.30;;;15.50;99.90;;;;;;5031124;28;20030;-39
2023/05/10 03:12:26;;;;;;;0.40;0.20;;;15.50;99.90;;;;;;5030936;28;20029;-39
2023/05/10 03:15:19;;;;;;;1.55;0.30;;;15.50;99.90;;;;;;5031117;28;20681;-39
2023/05/10 03:18:06;;;;;;;1.95;0.30;;;15.60;99.90;;;;;;5030440;28;20037;-39
2023/05/10 03:20:40;;;;;;;0.22;0.20;;;15.60;99.90;;;;;;5031014;28;20018;-40
2023/05/10 03:23:40;;;;;;;1.02;0.20;;;15.60;99.90;;;;;;5030998;28;20025;-39
2023/05/10 03:26:07;;;;;;;2.15;0.40;;;15.50;99.90;;;;;;5030349;28;20075;-39
2023/05/10 03:28:34;;;;;;;0.22;0.20;;;15.50;99.90;;;;;;5030599;28;20104;-39
2023/05/10 03:31:01;;;;;;;1.33;0.52;;;15.50;99.90;;;;;;5030724;28;20052;-40
2023/05/10 03:33:26;;;;;;;0.50;0.30;;;15.50;99.90;;;;;;5030804;28;20434;-40
2023/05/10 03:35:52;;;;;;;0.47;0.43;;;15.50;99.90;;;;;;5034388;28;20029;-39
2023/05/10 03:38:17;;;;;;;0.70;0.22;;;15.50;99.90;;;;;;5034419;28;20037;-39
2023/05/10 03:40:43;;;;;;;2.28;0.30;;;15.50;99.90;;;;;;5034715;28;20088;-39
2023/05/10 03:43:09;;;;;;;0.32;0.30;;;15.50;99.90;;;;;;5034697;28;20029;-39
2023/05/10 03:45:34;;;;;;;0.55;0.30;;;15.50;99.90;;;;;;5034849;28;20585;-39
2023/05/10 03:48:00;;;;;;;1.85;0.40;;;15.50;99.90;;;;;;5034103;28;20505;-39
2023/05/10 03:50:26;;;;;;;1.75;0.25;;;15.50;99.90;;;;;;5034591;28;20065;-39
2023/05/10 03:52:51;;;;;;;0.25;0.20;;;15.50;99.90;;;;;;5034921;28;20033;-39
2023/05/10 03:55:17;;;;;;;0.65;0.40;;;15.50;99.90;;;;;;5034472;28;20022;-39
2023/05/10 03:57:43;;;;;;;1.42;0.43;;;15.50;99.90;;;;;;5033898;28;20467;-39
2023/05/10 04:00:09;;;;;;;0.65;0.30;;;15.50;99.90;;;;;;5034425;28;20097;-39
2023/05/10 04:02:35;;;;;;;0.55;0.40;;;15.40;99.90;;;;;;5034436;28;20063;-38
2023/05/10 04:05:01;;;;;;;2.80;0.47;;;15.50;99.90;;;;;;5034421;28;20029;-39
2023/05/10 04:07:26;;;;;;;0.65;0.50;;;15.40;99.90;;;;;;5033654;28;20035;-39
2023/05/10 04:09:52;;;;;;;1.77;0.32;;;15.50;99.90;;;;;;5034160;28;20021;-40
2023/05/10 04:12:18;;;;;;;0.60;0.35;;;15.40;99.90;;;;;;5034263;28;20025;-39
2023/05/10 04:14:43;;;;;;;0.20;0.20;;;15.50;99.90;;;;;;5034109;28;20429;-40
2023/05/10 04:17:10;;;;;;;1.65;0.30;;;15.50;99.90;;;;;;5033867;28;20024;-39
2023/05/10 04:19:35;;;;;;;2.55;0.60;;;15.40;99.90;;;;;;5033983;28;20394;-39
2023/05/10 04:22:02;;;;;;;1.58;0.95;;;15.40;99.90;;;;;;5034006;28;20022;-39
2023/05/10 04:24:28;;;;;;;3.53;0.45;;;15.40;99.90;;;;;;5033896;28;20444;-39
2023/05/10 04:26:54;;;;;;;1.45;0.68;;;15.40;99.90;;;;;;5033396;28;20033;-40
2023/05/10 04:29:20;;;;;;;1.40;0.60;;;15.40;99.90;;;;;;5033841;28;20026;-40
2023/05/10 04:31:46;;;;;;;1.65;0.32;;;15.40;99.90;;;;;;5033861;28;20151;-40
2023/05/10 04:34:11;;;;;;;0.45;0.30;;;15.40;99.90;;;;;;5033864;28;20487;-39
2023/05/10 04:36:37;;;;;;;0.90;0.40;;;15.40;99.90;;;;;;5033057;28;20033;-39
2023/05/10 04:39:04;;;;;;;0.65;0.40;;;15.40;99.90;;;;;;5034140;28;20033;-39
2023/05/10 04:41:30;;;;;;;1.02;0.50;;;15.40;99.90;;;;;;5033866;28;20501;-39
2023/05/10 04:43:56;;;;;;;1.17;0.50;;;15.40;99.90;;;;;;5033675;28;20030;-41
2023/05/10 04:46:21;;;;;;;0.80;0.60;;;15.40;99.90;;;;;;5032462;28;20076;-39
2023/05/10 04:48:47;;;;;;;2.17;0.45;;;15.40;99.90;;;;;;5033512;28;20029;-39
2023/05/10 04:51:13;;;;;;;2.45;0.43;;;15.50;99.90;;;;;;5033346;28;20033;-38
2023/05/10 04:53:38;;;;;;;2.53;0.50;;;15.40;99.90;;;;;;5033439;28;20096;-40
2023/05/10 04:56:04;;;;;;;0.73;0.50;;;15.40;99.90;;;;;;5031748;28;20025;-39
2023/05/10 04:58:30;;;;;;;3.53;0.55;;;15.40;99.90;;;;;;5033318;28;20018;-39
2023/05/10 05:00:56;;;;;;;2.13;0.50;;;15.40;99.90;;;;;;5033550;28;20394;-39
2023/05/10 05:03:22;;;;;;;0.77;0.30;;;15.40;99.90;;;;;;5033359;28;20479;-40
2023/05/10 05:05:47;;;;;;;0.63;0.30;;;15.40;99.90;;;;;;5032907;28;20475;-41
2023/05/10 05:08:13;;;;;;;1.77;0.50;;;15.40;99.90;;;;;;5033094;28;20025;-39
2023/05/10 05:10:39;;;;;;;2.75;0.52;;;15.40;99.90;;;;;;5033210;28;20029;-40
2023/05/10 05:13:05;;;;;;;3.40;0.40;;;15.40;99.90;;;;;;5033038;28;20041;-39
2023/05/10 05:15:30;;;;;;;2.00;0.80;;;15.40;99.90;;;;;;5033074;28;20045;-38
2023/05/10 05:17:56;;;;;;;0.73;0.50;;;15.40;99.90;;;;;;5032519;28;20021;-39
2023/05/10 05:20:22;;;;;;;1.35;0.50;;;15.40;99.90;;;;;;5032907;28;20103;-39
2023/05/10 05:22:47;;;;;;;2.28;0.45;;;15.40;99.90;;;;;;5032836;28;20122;-39
2023/05/10 05:25:13;;;;;;;1.58;0.70;;;15.40;99.90;;;;;;5032861;28;20021;-39
2023/05/10 05:27:39;;;;;;;1.52;0.60;;;15.40;99.90;;;;;;5032482;28;20101;-39
2023/05/10 05:30:06;;;;;;;2.72;0.50;;;15.40;99.90;;;;;;5033120;28;20529;-39
2023/05/10 05:32:31;;;;;;;0.80;0.50;;;15.40;99.90;;;;;;5032656;28;20100;-39
2023/05/10 05:34:57;;;;;;;4.15;0.52;;;15.40;99.90;;;;;;5032698;28;20447;-39
2023/05/10 05:37:24;;;;;;;0.93;0.40;;;15.40;99.90;;;;;;5031965;28;20100;-39
2023/05/10 05:39:50;;;;;;;3.53;0.40;;;15.40;99.90;;;;;;5032656;28;20027;-39
2023/05/10 05:42:17;;;;;;;1.48;0.40;;;15.40;99.90;;;;;;5032719;28;20029;-39
2023/05/10 05:44:45;;;;;;;1.98;0.43;;;15.40;99.90;;;;;;5032476;28;20032;-40
2023/05/10 05:47:11;;;;;;;1.73;0.43;;;15.40;99.90;;;;;;5031832;28;20033;-39
2023/05/10 05:49:37;;;;;;;0.52;0.30;;;15.40;99.90;;;;;;5032353;28;20112;-39
2023/05/10 05:52:03;;;;;;;2.58;0.38;;;15.40;99.90;;;;;;5032502;28;20036;-39
2023/05/10 05:54:30;;;;;;;2.00;0.30;;;15.40;99.90;;;;;;5032345;28;20028;-39
2023/05/10 05:56:58;;;;;;;1.30;0.50;;;15.40;99.90;;;;;;5031452;28;20071;-39
2023/05/10 05:59:24;;;;;;;0.75;0.30;;;15.40;99.90;;;;;;5031962;28;20049;-39
2023/05/10 06:01:49;;;;;;;2.55;0.60;;;15.40;99.90;;;;;;5032186;28;20025;-40
2023/05/10 06:04:16;;;;;;;0.85;0.40;;;15.40;99.90;;;;;;5032020;28;20383;-41
2023/05/10 06:06:42;;;;;;;0.77;0.40;;;15.40;99.90;;;;;;5031488;28;20086;-39
2023/05/10 06:09:08;;;;;;;1.38;0.35;;;15.40;99.90;;;;;;5032031;28;20137;-39
2023/05/10 06:11:34;;;;;;;2.63;0.55;;;15.50;99.90;;;;;;5031810;28;20025;-39
2023/05/10 06:14:00;;;;;;;2.78;0.60;;;15.50;99.90;;;;;;5031968;28;20395;-39
2023/05/10 06:16:26;;;;;;;5.03;0.45;;;15.40;99.90;;;;;;5031417;28;20134;-39
2023/05/10 06:18:51;;;;;;;1.23;0.40;;;15.40;99.90;;;;;;5031697;28;20044;-39
2023/05/10 06:21:17;;;;;;;0.90;0.60;;;15.40;99.90;;;;;;5031740;28;20036;-38
2023/05/10 06:23:43;;;;;;;5.50;0.60;;;15.40;99.90;;;;;;5030444;28;20041;-40
2023/05/10 06:26:09;;;;;;;0.90;0.47;;;15.40;99.90;;;;;;5031353;28;20021;-40
2023/05/10 06:28:37;;;;;;;3.63;0.60;;;15.30;99.90;;;;;;5031553;28;20071;-42
2023/05/10 06:31:03;;;;;;;0.75;0.60;;;15.20;99.90;;;;;;5031575;28;20044;-42
2023/05/10 06:33:29;;;;;;;1.23;0.60;;;15.20;99.90;;;;;;5031550;28;20486;-40
2023/05/10 06:35:54;;;;;;;1.40;0.32;;;15.20;99.90;;;;;;5031170;28;20049;-40
2023/05/10 06:38:20;;;;;;;2.28;0.50;;;15.30;99.90;;;;;;5031315;28;20029;-40
2023/05/10 06:40:45;;;;;;;1.80;0.60;;;15.30;99.90;;;;;;5031541;28;20018;-40
2023/05/10 06:43:11;;;;;;;1.17;0.60;;;15.30;99.90;;;;;;5031488;28;20481;-40
2023/05/10 06:45:37;;;;;;;0.80;0.60;;;15.30;99.90;;;;;;5031372;28;20482;-39
2023/05/10 06:48:02;;;;;;;0.80;0.50;;;15.30;99.90;;;;;;5030692;28;20029;-39
2023/05/10 06:50:28;;;;;;;2.95;0.55;;;15.30;99.90;;;;;;5031301;28;20371;-42
2023/05/10 06:52:55;;;;;;;1.17;0.50;;;15.30;99.90;;;;;;5031227;28;20359;-39
2023/05/10 06:55:21;;;;;;;0.98;0.50;;;15.30;99.90;;;;;;5031172;28;20029;-39
2023/05/10 06:57:47;;;;;;;0.88;0.50;;;15.30;99.90;;;;;;5030715;28;20022;-40
2023/05/10 07:00:13;;;;;;;1.08;0.60;;;15.30;99.90;;;;;;5031236;28;20108;-41
2023/05/10 07:02:39;;;;;;;1.25;0.50;;;15.40;99.90;;;;;;5031159;28;20196;-40
2023/05/10 07:05:05;;;;;;;1.45;0.50;;;15.30;99.90;;;;;;5031150;28;20061;-39
2023/05/10 07:07:31;;;;;;;0.73;0.50;;;15.40;99.90;;;;;;5030591;28;20091;-39
2023/05/10 07:09:57;;;;;;;0.93;0.52;;;15.40;99.90;;;;;;5030697;28;20470;-40
2023/05/10 07:12:23;;;;;;;0.93;0.40;;;15.40;99.90;;;;;;5031065;28;20084;-40
2023/05/10 07:14:49;;;;;;;0.88;0.40;;;15.40;99.90;;;;;;5031059;28;20025;-40
2023/05/10 07:17:15;;;;;;;0.55;0.47;;;15.40;99.90;;;;;;5030304;28;20022;-39
2023/05/10 07:19:40;;;;;;;2.38;0.50;;;15.40;99.90;;;;;;5030988;28;20030;-39
2023/05/10 07:22:06;;;;;;;1.60;0.40;;;15.30;99.90;;;;;;5030956;28;20030;-41
2023/05/10 07:24:33;;;;;;;1.23;0.43;;;15.40;99.90;;;;;;5031032;28;20502;-39
2023/05/10 07:26:58;;;;;;;1.45;0.50;;;15.40;99.90;;;;;;5030422;28;20021;-39
2023/05/10 07:29:24;;;;;;;0.93;0.52;;;15.40;99.90;;;;;;5030898;28;20031;-39
2023/05/10 07:31:49;;;;;;;2.50;0.60;;;15.40;99.90;;;;;;5030788;28;20479;-39
2023/05/10 07:34:15;;;;;;;0.50;0.47;;;15.40;99.90;;;;;;5030991;28;20029;-39
2023/05/10 07:36:41;;;;;;;0.80;0.60;;;15.40;99.90;;;;;;5030106;28;20041;-39
2023/05/10 07:39:07;;;;;;;0.55;0.45;;;15.40;99.90;;;;;;5031342;28;20036;-40
2023/05/10 07:41:33;;;;;;;1.27;0.60;;;15.40;99.90;;;;;;5030822;28;20032;-40
2023/05/10 07:43:58;;;;;;;0.70;0.57;;;15.40;99.90;;;;;;5030736;28;20025;-40
2023/05/10 07:46:24;;;;;;;1.55;0.70;;;15.40;99.90;;;;;;5030197;28;20033;-39
2023/05/10 07:48:49;;;;;;;3.40;0.50;;;15.40;99.90;;;;;;5030600;28;20040;-39
2023/05/10 07:51:15;;;;;;;0.38;0.38;;;15.50;99.90;;;;;;5030604;28;20030;-40
2023/05/10 07:53:41;;;;;;;1.38;0.68;;;15.40;99.90;;;;;;5030648;28;20403;-41
2023/05/10 07:56:29;;;;;;;0.93;0.40;;;15.50;99.90;;;;;;5030297;28;20076;-39
2023/05/10 07:58:58;;;;;;;1.05;0.50;;;15.40;99.90;;;;;;5030540;28;20052;-39
2023/05/10 08:01:24;;;;;;;1.10;0.45;;;15.40;99.90;;;;;;5030594;28;20556;-39
2023/05/10 08:03:51;;;;;;;1.00;0.50;;;15.40;99.90;;;;;;5030585;28;20419;-39
2023/05/10 08:06:18;;;;;;;0.65;0.40;;;15.50;99.90;;;;;;5030028;28;20017;-39
2023/05/10 08:08:48;;;;;;;0.80;0.50;;;15.50;99.90;;;;;;5030514;28;20056;-39
2023/05/10 08:11:17;;;;;;;1.63;0.82;;;15.40;99.90;;;;;;5030433;28;20033;-39
2023/05/10 08:13:44;;;;;;;2.35;0.88;;;15.40;99.90;;;;;;5030772;28;20105;-41
2023/05/10 08:16:10;;;;;;;0.93;0.60;;;15.40;99.90;;;;;;5030195;28;20026;-39
2023/05/10 08:18:36;;;;;;;1.58;0.60;;;15.40;99.90;;;;;;5030404;28;20471;-39
2023/05/10 08:21:02;;;;;;;2.83;0.55;;;15.40;99.90;;;;;;5031672;28;20025;-39
2023/05/10 08:23:27;;;;;;;0.93;0.43;;;15.40;99.90;;;;;;5034053;28;20021;-40
2023/05/10 08:25:53;;;;;;;2.70;0.60;;;15.40;99.90;;;;;;5033459;28;20030;-40
2023/05/10 08:28:18;;;;;;;2.30;0.60;;;15.40;99.90;;;;;;5033633;28;20029;-39
2023/05/10 08:30:44;;;;;;;0.80;0.30;;;15.40;99.90;;;;;;5034037;28;20075;-39
2023/05/10 08:33:10;;;;;;;3.13;0.40;;;15.40;99.90;;;;;;5032573;28;20038;-39
2023/05/10 08:35:35;;;;;;;2.80;0.70;;;15.40;99.90;;;;;;5033877;28;20129;-40
2023/05/10 08:38:01;;;;;;;5.35;1.23;;;15.30;99.90;;;;;;5033068;28;20124;-39
2023/05/10 08:40:27;;;;;;;1.40;0.63;;;15.30;99.90;;;;;;5033680;28;20025;-40
2023/05/10 08:43:09;;;;;;;4.05;0.50;;;15.30;99.90;;;;;;5033673;28;20025;-40
2023/05/10 08:45:40;;;;;;;0.57;0.35;;;15.30;99.90;;;;;;5033641;28;20044;-40
2023/05/10 08:48:08;;;;;;;1.50;0.20;;;15.20;99.90;;;;;;5033286;28;20033;-39
2023/05/10 08:50:37;;;;;;;4.72;0.30;;;15.20;99.90;;;;;;5033595;28;20025;-39
2023/05/10 08:53:12;;;;;;;0.20;0.13;;;15.20;99.90;;;;;;5033276;28;20510;-39
2023/05/10 08:55:40;;;;;;;3.00;0.20;;;15.20;99.90;;;;;;5033456;28;20060;-39
2023/05/10 08:58:07;;;;;;;1.75;0.30;;;15.20;99.90;;;;;;5032975;28;20022;-40
2023/05/10 09:00:33;;;;;;;1.38;0.30;;;15.20;99.90;;;;;;5033270;28;20387;-39
2023/05/10 09:03:00;;;;;;;0.65;0.20;;;15.20;99.90;;;;;;5033455;28;20029;-39
2023/05/10 09:05:26;;;;;;;0.95;0.30;;;15.30;99.90;;;;;;5033226;28;20029;-39
2023/05/10 09:07:52;;;;;;;0.38;0.30;;;15.30;99.90;;;;;;5032671;28;20494;-40
2023/05/10 09:10:19;;;;;;;0.30;0.20;;;15.30;99.90;;;;;;5033258;28;20044;-41
2023/05/10 09:12:45;;;;;;;0.43;0.28;;;15.40;99.90;;;;;;5033025;28;20438;-40
2023/05/10 09:15:11;;;;;;;2.05;0.30;;;15.40;99.90;;;;;;5033077;28;20026;-39
2023/05/10 09:17:40;;;;;;;0.40;0.20;;;15.40;99.90;;;;;;5032602;28;20470;-38
2023/05/10 09:20:06;;;;;;;3.35;0.25;;;15.40;99.90;;;;;;5032988;28;20383;-39
2023/05/10 09:22:32;;;;;;;0.30;0.22;;;15.40;99.90;;;;;;5033268;28;20025;-39
2023/05/10 09:25:10;;;;;;;0.50;0.20;;;15.40;99.90;;;;;;5033287;28;20426;-39
2023/05/10 09:27:37;;;;;;;0.93;0.30;;;15.40;99.90;;;;;;5032402;28;20022;-39
2023/05/10 09:30:05;;;;;;;0.55;0.20;;;15.50;99.90;;;;;;5032844;28;20034;-40
2023/05/10 09:32:41;;;;;;;0.40;0.20;;;15.50;99.90;;;;;;5032454;28;20388;-39
2023/05/10 09:35:11;;;;;;;2.08;0.20;;;15.50;99.90;;;;;;5032849;28;20022;-39
2023/05/10 09:37:42;;;;;;;1.40;0.40;;;15.50;99.90;;;;;;5032083;28;20087;-39
2023/05/10 09:40:13;;;;;;;1.80;0.20;;;15.50;99.90;;;;;;5032679;28;20021;-40
2023/05/10 09:42:50;;;;;;;0.40;0.30;;;15.50;99.90;;;;;;5032642;28;20057;-38
2023/05/10 09:45:15;;;;;;;0.52;0.30;;;15.50;99.90;;;;;;5032503;28;20036;-39
2023/05/10 09:47:41;;;;;;;0.90;0.22;;;15.50;99.90;;;;;;5031870;28;20029;-39
2023/05/10 09:50:07;;;;;;;1.00;0.40;;;15.60;99.90;;;;;;5032442;28;20117;-39
2023/05/10 09:53:00;;;;;;;0.65;0.30;;;15.50;99.90;;;;;;5032227;28;20431;-40
2023/05/10 09:55:42;;;;;;;0.47;0.30;;;15.50;99.90;;;;;;5029770;28;20479;-39
2023/05/10 09:58:11;;;;;;;1.23;0.20;;;15.50;99.90;;;;;;5031890;28;20053;-39
2023/05/10 10:00:41;;;;;;;1.65;0.30;;;15.50;99.90;;;;;;5032507;28;20383;-39
2023/05/10 10:03:14;;;;;;;0.30;0.20;;;15.50;99.90;;;;;;5032216;28;20048;-39
2023/05/10 10:05:41;;;;;;;2.05;0.28;;;15.50;99.90;;;;;;5032048;28;20029;-37
2023/05/10 10:08:06;;;;;;;0.20;0.20;;;15.60;99.90;;;;;;5031771;28;20056;-39
2023/05/10 10:10:33;;;;;;;0.40;0.30;;;15.50;99.90;;;;;;5032083;28;20334;-39
2023/05/10 10:12:59;;;;;;;2.70;0.30;;;15.60;99.90;;;;;;5031936;28;20466;-40
2023/05/10 10:15:25;;;;;;;0.35;0.15;;;15.60;99.90;;;;;;5031945;28;20026;-40
2023/05/10 10:17:52;;;;;;;0.47;0.28;;;15.60;99.90;;;;;;5031367;28;20112;-39
2023/05/10 10:20:19;;;;;;;0.65;0.20;;;15.60;99.90;;;;;;5031857;28;20025;-39
2023/05/10 10:22:46;;;;;;;0.88;0.20;;;15.60;99.90;;;;;;5031757;28;20116;-39
2023/05/10 10:25:14;;;;;;;0.30;0.28;;;15.60;99.90;;;;;;5031827;28;20025;-39
2023/05/10 10:27:51;;;;;;;0.65;0.30;;;15.60;99.90;;;;;;5031184;28;20041;-39
2023/05/10 10:30:36;;;;;;;0.98;0.40;;;15.60;99.90;;;;;;5031767;28;20033;-39
2023/05/10 10:33:36;;;;;;;0.68;0.30;;;15.60;99.90;;;;;;5031472;28;20029;-38
2023/05/10 10:36:03;;;;;;;0.30;0.22;;;15.60;99.90;;;;;;5031084;28;20033;-40
2023/05/10 10:38:47;;;;;;;0.60;0.25;;;15.60;99.90;;;;;;5031405;28;20029;-39
2023/05/10 10:41:51;;;;;;;1.00;0.37;;;15.60;99.90;;;;;;5031429;28;20018;-40
2023/05/10 10:44:25;;;;;;;0.85;0.30;;;15.60;99.90;;;;;;5030918;28;20028;-39
2023/05/10 10:47:32;;;;;;;;;;;15.60;99.90;;;;;;5031224;28;20034;-40
2023/05/10 10:49:58;;;;;;;;;;;15.60;99.90;;;;;;5028918;28;19912;-39
2023/05/10 10:52:23;;;;;;;;;;;15.60;99.90;;;;;;5031650;28;19962;-39
2023/05/10 10:54:53;;;;;;;;;;;15.60;99.90;;;;;;5031741;28;19905;-39
2023/05/10 10:57:19;;;;;;;;;;;15.50;99.90;;;;;;5031158;28;19916;-39
2023/05/10 10:59:45;;;;;;;;;;;15.60;99.90;;;;;;5031670;28;19905;-40
2023/05/10 11:02:30;;;;;;;;;;;15.60;99.90;;;;;;5031525;28;19909;-39
2023/05/10 11:04:56;;;;;;;;;;;15.60;99.90;;;;;;5031491;28;19905;-40
2023/05/10 11:07:21;;;;;;;;;;;15.60;99.90;;;;;;5031176;28;19916;-40
2023/05/10 11:09:47;;;;;;;;;;;15.60;99.90;;;;;;5031574;28;19912;-39
2023/05/10 11:12:13;;;;;;;;;;;15.60;99.90;;;;;;5031474;28;19923;-39
2023/05/10 11:14:39;;;;;;;;;;;15.60;99.90;;;;;;5031416;28;19909;-39
2023/05/10 11:17:31;;;;;;;;;;;15.60;99.90;;;;;;5030936;28;19905;-41
2023/05/10 11:20:26;;;;;;;;;;;15.60;99.90;;;;;;5030240;28;19905;-39
2023/05/10 11:22:52;;;;;;;;;;;15.60;99.90;;;;;;5030521;28;20380;-39
2023/05/10 11:25:17;;;;;;;;;;;15.60;99.90;;;;;;5031301;28;19905;-39
2023/05/10 11:27:43;;;;;;;;;;;15.60;99.90;;;;;;5030801;28;19911;-40
2023/05/10 11:30:10;;;;;;;;;;;15.50;99.90;;;;;;5031360;28;19905;-40
2023/05/10 11:32:39;;;;;;;;;;;15.60;99.90;;;;;;5031200;28;19963;-39
2023/05/10 11:35:08;;;;;;;;;;;15.50;99.90;;;;;;5031368;28;20307;-39
2023/05/10 11:37:34;;;;;;;;;;;15.60;99.90;;;;;;5030718;28;20355;-39
2023/05/10 11:39:59;;;;;;;;;;;15.60;99.90;;;;;;5031373;28;19988;-39
2023/05/10 11:42:25;;;;;;;;;;;15.60;99.90;;;;;;5031222;28;19908;-39
2023/05/10 11:44:50;;;;;;;;;;;15.60;99.90;;;;;;5031177;28;19909;-39
2023/05/10 11:47:16;;;;;;;;;;;15.60;99.90;;;;;;5030640;28;19959;-39
2023/05/10 11:49:45;;;;;;;;;;;15.60;99.90;;;;;;5029859;28;19905;-39
2023/05/10 11:52:13;;;;;;;;;;;15.60;99.90;;;;;;5031022;28;20440;-39
2023/05/10 11:54:59;;;;;;;;;;;15.60;99.90;;;;;;5031149;28;20286;-40
2023/05/10 11:57:26;;;;;;;;;;;15.60;99.90;;;;;;5033299;28;19915;-39
2023/05/10 11:59:55;;;;;;;;;;;15.70;99.90;;;;;;5034962;28;19909;-39
2023/05/10 12:02:21;;;;;;;;;;;15.70;99.90;;;;;;5034962;28;20322;-41
2023/05/10 12:04:47;;;;;;;;;;;15.70;99.90;;;;;;5034720;28;19909;-39
2023/05/10 12:07:12;;;;;;;;;;;15.70;99.90;;;;;;5034328;28;19905;-39
2023/05/10 12:09:42;;;;;;;;;;;15.70;99.90;;;;;;5034787;28;20270;-39
2023/05/10 12:12:07;;;;;;;;;;;15.70;99.90;;;;;;5034652;28;19966;-39
2023/05/10 12:14:36;;;;;;;;;;;15.60;99.90;;;;;;5034763;28;19999;-39
2023/05/10 12:17:02;;;;;;;;;;;15.60;99.90;;;;;;5034106;28;19912;-40
2023/05/10 12:19:27;;;;;;;;;;;15.70;99.90;;;;;;5034602;28;19909;-40
2023/05/10 12:21:53;;;;;;;;;;;15.60;99.90;;;;;;5034599;28;19912;-40
2023/05/10 12:24:19;;;;;;;;;;;15.60;99.90;;;;;;5034664;28;19905;-39
2023/05/10 12:26:48;;;;;;;;;;;15.60;99.90;;;;;;5034007;28;19909;-39
2023/05/10 12:29:17;;;;;;;;;;;15.60;99.90;;;;;;5034535;28;19909;-39
2023/05/10 12:31:56;;;;;;;;;;;15.60;99.90;;;;;;5034276;28;19944;-39
2023/05/10 12:34:35;;;;;;;;;;;15.60;99.90;;;;;;5034317;28;19905;-39
2023/05/10 12:37:02;;;;;;;;;;;15.60;99.90;;;;;;5033613;28;19990;-40
2023/05/10 12:39:39;;;;;;;;;;;15.60;99.90;;;;;;5034252;28;19912;-42
2023/05/10 12:42:06;;;;;;;;;;;15.60;99.90;;;;;;5034079;28;19905;-39
2023/05/10 12:44:31;;;;;;;;;;;15.60;99.90;;;;;;5034165;28;19905;-39
2023/05/10 12:46:57;;;;;;;;;;;15.60;99.90;;;;;;5033492;28;19905;-39
2023/05/10 12:49:22;;;;;;;;;;;15.60;99.90;;;;;;5033997;28;20325;-39
2023/05/10 12:51:48;;;;;;;;;;;15.60;99.90;;;;;;5033849;28;19996;-40
2023/05/10 12:54:13;;;;;;;;;;;15.60;99.90;;;;;;5033995;28;19905;-39
2023/05/10 12:56:40;;;;;;;;;;;15.60;99.90;;;;;;5033268;28;20031;-39
2023/05/10 12:59:06;;;;;;;;;;;15.60;99.90;;;;;;5033915;28;19905;-39
2023/05/10 13:01:31;;;;;;;;;;;15.60;99.90;;;;;;5033833;28;19999;-39
2023/05/10 13:03:57;;;;;;;;;;;15.60;99.90;;;;;;5033762;28;19941;-40
2023/05/10 13:06:22;;;;;;;;;;;15.60;99.90;;;;;;5032831;28;19943;-39
2023/05/10 13:08:48;;;;;;;;;;;15.60;99.90;;;;;;5033549;28;19909;-39